Clayton, Louisiana
Current Conditions -  °F | °C
As of 6:35 AM on Sunday 21 Dec 2014 (Local Time) from KHEZ Reporting Station
Clear Clear  
Wind Chill: 30°   Ceiling: Unl
Heat Index: 34°   Visibility: 10mi
Dew Point: 30°   Wind: 5mph
Humidity: 87%   Direction: 20°NNE
Pressure: 30.13"   Gusts: NA
Location:  31.72°N, 91.54°W
Report Text: KHEZ 211235Z AUTO 02004KT 10SM CLR 01/M01 A3013 RMK AO1
Loading
Personal Weather Stations






























Interactive Weather Map New forecast layout! Learn more

10-Day Weather Forecast

Advertisements
Track Severe Weather on mobile